Flight Briefing for CPX429

Departure Arrival
Portland International Jetport (KPWM)
Click to view FAA NOTAMS
Washington Dulles International Airport (KIAD)
Click to view FAA NOTAMS
Departure Time Arrival Time
N/A N/A
Aircraft Distance
B757-200SF 429nm
Departure METAR Arrival METAR
KPWM 190651Z AUTO 28003KT 10SM CLR M06/M10 A3031 RMK AO2 SLP263 T10561100 KIAD 190652Z 32004KT 10SM CLR M02/M08 A3039 RMK AO2 SLP292 T10171078
Suggested Route
NUBLE3 BAF HYPER7


View recent IFR Routes data
Notes
LOBSTER KING

Charts and Procedures

Charts for KPWM
No chart available
Charts for KIAD
No chart available

Windy.com Weather Map